Latest Weather Observations for Tewantin

IDQ60901

Issued at 7:11 am EST Sunday 22 October 2017 (issued every 10 minutes, with the page automatically refreshed every 10 minutes)

About weather observations | Map of Brisbane area stations | Latest observations for Brisbane area | Other Formats
Station Details ID: 040908 Name: TEWANTIN RSL PARK Lat: -26.39 Lon: 153.04 Height: 6.4 m
Data from the previous 72 hours. | See also: Recent months at Tewantin
Date/Time
EST
Temp
°C
App
Temp
°C
Dew
Point
°C
Rel
Hum
%
Delta-T
°C
Wind Press
QNH
hPa
Press
MSL
hPa
Rain since
9am
mm
Dir  Spd
km/h
Gust
km/h
Spd
kts
Gust
kts
22/07:00am 17.8 17.2 13.5 76 2.4 S 9 17 5 9 1013.0 1013.0 18.2
22/06:30am 16.5 16.7 14.2 86 1.3 S 6 9 3 5 1012.9 1012.9 18.2
22/06:00am 14.9 15.6 14.6 98 0.2 SSW 4 7 2 4 1012.6 1012.6 18.2
22/05:30am 13.5 14.5 13.3 99 0.1 CALM 0 0 0 0 1012.4 1012.4 18.2
22/05:00am 13.6 14.3 13.4 99 0.1 W 2 6 1 3 1012.3 1012.3 18.2
22/04:30am 13.7 13.7 13.5 99 0.1 W 6 7 3 4 1012.2 1012.2 18.2
22/04:00am 13.8 14.9 13.6 99 0.1 CALM 0 0 0 0 1012.1 1012.1 18.2
22/03:30am 14.2 15.5 14.0 99 0.1 CALM 0 0 0 0 1012.1 1012.1 18.2
22/03:00am 14.1 15.3 13.9 99 0.1 CALM 0 6 0 3 1012.2 1012.2 18.2
22/02:30am 14.4 15.7 14.2 99 0.1 CALM 0 0 0 0 1012.2 1012.2 18.2
22/02:00am 14.6 16.0 14.4 99 0.1 CALM 0 0 0 0 1012.5 1012.5 18.2
22/01:30am 15.0 16.6 14.8 99 0.1 CALM 0 0 0 0 1012.9 1012.9 18.2
22/01:00am 15.3 16.5 15.0 98 0.2 SSW 2 7 1 4 1013.3 1013.3 18.2
22/12:30am 15.6 16.2 15.3 98 0.2 SSW 6 7 3 4 1013.6 1013.6 18.2
22/12:00am 15.9 16.6 15.6 98 0.2 SSW 6 9 3 5 1013.9 1013.9 18.2
 
Date/Time
EST
Temp
°C
App
Temp
°C
Dew
Point
°C
Rel
Hum
%
Delta-T
°C
Wind Press
QNH
hPa
Press
MSL
hPa
Rain since
9am
mm
Dir  Spd
km/h
Gust
km/h
Spd
kts
Gust
kts
21/11:30pm 15.9 16.5 15.7 99 0.1 S 7 13 4 7 1014.0 1014.0 18.2
21/11:00pm 16.1 16.4 15.9 99 0.1 SSW 9 13 5 7 1014.4 1014.4 18.2
21/10:30pm 16.0 15.5 15.8 99 0.1 S 13 22 7 12 1014.4 1014.4 18.2
21/10:00pm 16.0 15.5 15.8 99 0.1 S 13 19 7 10 1014.3 1014.3 18.0
21/09:30pm 16.0 16.2 15.8 99 0.1 SSW 9 17 5 9 1014.9 1014.9 18.0
21/09:00pm 15.9 16.1 15.7 99 0.1 S 9 15 5 8 1015.0 1015.0 18.0
21/08:30pm 15.9 16.5 15.7 99 0.1 S 7 11 4 6 1014.7 1014.7 17.8
21/08:00pm 16.0 16.6 15.8 99 0.1 SSE 7 13 4 7 1014.6 1014.6 17.6
21/07:30pm 16.0 15.5 15.8 99 0.1 S 13 17 7 9 1014.9 1014.9 17.0
21/07:00pm 15.9 16.1 15.7 99 0.1 SSE 9 22 5 12 1014.6 1014.6 15.6
21/06:30pm 16.1 15.2 15.9 99 0.1 S 15 22 8 12 1014.7 1014.7 13.6
21/06:00pm 16.1 14.5 15.9 99 0.1 S 19 30 10 16 1014.4 1014.4 12.4
21/05:30pm 16.3 14.5 16.1 99 0.1 S 20 32 11 17 1014.1 1014.1 10.6
21/05:00pm 16.8 15.2 16.6 99 0.1 SSE 20 32 11 17 1013.7 1013.7 9.4
21/04:30pm 17.0 16.1 16.8 99 0.1 SSE 17 28 9 15 1013.5 1013.5 8.0
21/04:00pm 17.4 16.6 17.2 99 0.1 SSE 17 35 9 19 1013.3 1013.3 6.4
21/03:30pm 17.9 17.4 17.7 99 0.1 S 17 32 9 17 1013.1 1013.1 4.0
21/03:00pm 18.5 18.2 18.3 99 0.1 SSE 17 24 9 13 1013.0 1013.0 1.8
21/02:30pm 19.7 21.0 19.2 97 0.3 SSE 11 20 6 11 1012.9 1012.9 1.8
21/02:00pm 19.9 21.7 19.6 98 0.2 SE 9 17 5 9 1013.2 1013.2 1.8
21/01:30pm 19.9 21.6 19.4 97 0.3 ESE 9 15 5 8 1013.4 1013.4 1.6
21/01:00pm 20.8 23.3 19.8 94 0.6 SSE 6 9 3 5 1013.8 1013.8 1.2
21/12:30pm 20.6 22.7 18.9 90 1.1 S 6 9 3 5 1014.1 1014.1 1.0
21/12:00pm 20.9 22.9 18.7 87 1.4 SSW 6 9 3 5 1014.7 1014.7 1.0
21/11:30am 21.2 23.6 18.8 86 1.5 SW 4 7 2 4 1014.8 1014.8 1.0
21/11:00am 21.0 23.0 19.1 89 1.2 SW 7 11 4 6 1015.2 1015.2 1.0
21/10:30am 20.9 23.0 19.0 89 1.2 SW 6 9 3 5 1015.3 1015.3 1.0
21/10:00am 20.9 23.7 17.9 83 1.9 CALM 0 0 0 0 1015.0 1015.0 0.8
21/09:30am 20.9 22.3 17.3 80 2.2 NW 6 9 3 5 1015.3 1015.3 0.0
21/09:00am 21.6 22.0 16.3 72 3.2 NW 9 15 5 8 1015.5 1015.5 0.0
21/08:30am 21.6 22.6 16.3 72 3.2 WNW 6 9 3 5 1015.7 1015.7 0.0
21/08:00am 21.2 22.9 17.2 78 2.4 WSW 4 9 2 5 1015.9 1015.9 0.0
21/07:30am 19.8 20.8 16.4 81 2.0 WNW 6 7 3 4 1015.9 1015.9 0.0
21/07:00am 19.2 21.1 16.6 85 1.6 W 2 6 1 3 1015.9 1015.9 0.0
21/06:30am 18.4 20.2 16.4 88 1.2 WSW 2 7 1 4 1015.7 1015.7 0.0
21/06:00am 17.9 20.1 16.6 92 0.8 CALM 0 0 0 0 1015.6 1015.6 0.0
21/05:30am 17.5 19.7 16.4 93 0.7 CALM 0 0 0 0 1015.4 1015.4 0.0
21/05:00am 17.2 19.4 16.4 95 0.5 CALM 0 0 0 0 1015.2 1015.2 0.0
21/04:30am 17.0 18.6 16.0 94 0.6 WNW 2 7 1 4 1015.0 1015.0 0.0
21/04:00am 17.0 18.6 16.0 94 0.6 W 2 6 1 3 1014.9 1014.9 0.0
21/03:30am 16.9 17.8 16.1 95 0.5 WNW 6 9 3 5 1014.9 1014.9 0.0
21/03:00am 16.7 18.7 16.1 96 0.4 CALM 0 2 0 1 1014.9 1014.9 0.0
21/02:30am 16.7 18.5 15.6 93 0.6 CALM 0 0 0 0 1015.0 1015.0 0.0
21/02:00am 16.9 18.8 15.8 93 0.6 CALM 0 0 0 0 1015.1 1015.1 0.0
21/01:30am 17.3 19.3 16.0 92 0.8 CALM 0 0 0 0 1015.7 1015.7 0.0
21/01:00am 17.5 19.4 15.8 90 1.0 CALM 0 0 0 0 1016.0 1016.0 0.0
21/12:30am 17.7 19.9 16.4 92 0.8 CALM 0 0 0 0 1016.3 1016.3 0.0
21/12:00am 17.7 19.7 15.9 89 1.1 CALM 0 0 0 0 1016.8 1016.8 0.0
 
Date/Time
EST
Temp
°C
App
Temp
°C
Dew
Point
°C
Rel
Hum
%
Delta-T
°C
Wind Press
QNH
hPa
Press
MSL
hPa
Rain since
9am
mm
Dir  Spd
km/h
Gust
km/h
Spd
kts
Gust
kts
20/11:30pm 18.0 20.1 16.3 90 1.0 CALM 0 0 0 0 1017.2 1017.2 0.0
20/11:00pm 18.1 20.1 15.9 87 1.3 CALM 0 0 0 0 1017.4 1017.4 0.0
20/10:30pm 18.2 20.1 15.8 86 1.4 CALM 0 0 0 0 1017.7 1017.7 0.0
20/10:00pm 18.4 19.9 15.6 84 1.6 WNW 2 7 1 4 1017.9 1017.9 0.0
20/09:30pm 18.7 19.5 15.9 84 1.7 WNW 6 7 3 4 1018.0 1018.0 0.0
20/09:00pm 19.2 20.0 15.9 81 2.0 WNW 6 9 3 5 1018.1 1018.1 0.0
20/08:30pm 19.8 21.8 16.1 79 2.2 CALM 0 0 0 0 1018.1 1018.1 0.0
20/08:00pm 20.5 21.3 15.9 75 2.7 NW 6 7 3 4 1018.1 1018.1 0.0
20/07:30pm 20.9 21.7 15.9 73 3.0 NNW 6 7 3 4 1018.0 1018.0 0.0
20/07:00pm 21.2 21.9 15.7 71 3.3 N 6 9 3 5 1018.0 1018.0 0.0
20/06:30pm 21.5 21.9 15.3 68 3.7 N 7 9 4 5 1017.9 1017.9 0.0
20/06:00pm 21.9 22.1 15.7 68 3.7 N 9 15 5 8 1017.8 1017.8 0.0
20/05:30pm 22.4 22.6 15.7 66 4.0 NNE 9 15 5 8 1017.7 1017.7 0.0
20/05:00pm 22.9 22.4 16.0 65 4.2 NE 13 19 7 10 1017.4 1017.4 0.0
20/04:30pm 23.3 22.2 15.4 61 4.7 ENE 15 22 8 12 1017.4 1017.4 0.0
20/04:00pm 23.5 22.8 15.5 60 4.8 NE 13 20 7 11 1017.5 1017.5 0.0
20/03:30pm 23.7 22.4 14.9 57 5.2 NE 15 20 8 11 1017.5 1017.5 0.0
20/03:00pm 24.0 23.2 15.2 58 5.3 NE 13 20 7 11 1017.6 1017.6 0.0
20/02:30pm 24.3 23.2 16.3 61 4.9 NE 17 22 9 12 1017.9 1017.9 0.0
20/02:00pm 24.5 23.5 15.7 58 5.3 NE 15 22 8 12 1018.4 1018.4 0.0
20/01:30pm 24.3 23.5 16.0 60 5.0 NE 15 26 8 14 1018.9 1018.9 0.0
20/01:00pm 24.2 22.4 13.4 51 6.3 NE 15 26 8 14 1019.4 1019.4 0.0
20/12:30pm 24.9 24.1 15.0 54 5.9 NE 13 20 7 11 1019.8 1019.8 0.0
20/12:00pm 24.8 24.9 16.5 60 5.1 NNE 11 19 6 10 1020.1 1020.1 0.0
20/11:30am 23.8 23.3 14.8 57 5.4 NE 11 17 6 9 1020.5 1020.5 0.0
20/11:00am 23.6 23.4 16.6 65 4.3 NNE 13 20 7 11 1021.0 1021.0 0.0
20/10:30am 24.2 23.3 14.9 56 5.5 NNE 13 24 7 13 1021.3 1021.3 0.0
20/10:00am 24.6 24.2 16.3 60 5.1 ENE 13 20 7 11 1021.5 1021.5 0.0
20/09:30am 24.2 24.0 15.7 59 5.1 NE 11 20 6 11 1021.5 1021.5 0.0
20/09:00am 23.9 23.6 14.3 55 5.6 NE 9 17 5 9 1021.8 1021.8 0.4
20/08:30am 23.3 22.5 15.1 60 4.9 ENE 13 20 7 11 1021.9 1021.9 0.4
20/08:00am 23.3 23.0 14.3 57 5.3 E 9 17 5 9 1021.7 1021.7 0.4
20/07:30am 23.2 22.5 14.2 57 5.3 ENE 11 17 6 9 1021.7 1021.7 0.4
20/07:00am 22.2 23.1 16.2 69 3.6 S 6 9 3 5 1021.6 1021.6 0.4
20/06:30am 20.6 22.2 17.8 84 1.7 SSW 6 7 3 4 1021.6 1021.6 0.4
20/06:00am 19.1 20.7 17.9 93 0.7 SSW 6 9 3 5 1021.3 1021.3 0.4
20/05:30am 18.2 20.4 17.4 95 0.5 SW 2 7 1 4 1021.0 1021.0 0.4
20/05:00am 18.5 21.3 17.9 96 0.4 CALM 0 0 0 0 1020.7 1020.7 0.4
20/04:30am 18.5 21.1 17.5 94 0.6 CALM 0 0 0 0 1020.5 1020.5 0.4
20/04:00am 18.9 20.3 17.4 91 0.9 SSW 6 11 3 6 1020.2 1020.2 0.4
20/03:30am 19.0 20.3 17.5 91 0.9 SSW 7 9 4 5 1020.3 1020.3 0.4
20/03:00am 19.4 20.8 17.4 88 1.2 SSW 6 9 3 5 1020.4 1020.4 0.4
20/02:30am 20.1 21.5 17.3 84 1.7 ESE 6 11 3 6 1020.7 1020.7 0.4
20/02:00am 20.5 22.0 17.5 83 1.8 ESE 6 9 3 5 1021.0 1021.0 0.4
20/01:30am 19.3 20.9 17.8 91 0.9 SSE 6 9 3 5 1021.3 1021.3 0.4
20/01:00am 18.8 20.2 17.8 94 0.6 SSW 7 9 4 5 1021.7 1021.7 0.4
20/12:30am 18.4 19.9 16.7 90 1.0 SSW 4 9 2 5 1022.1 1022.1 0.4
20/12:00am 18.2 19.0 16.4 89 1.1 SSW 7 9 4 5 1022.7 1022.7 0.4
 
Date/Time
EST
Temp
°C
App
Temp
°C
Dew
Point
°C
Rel
Hum
%
Delta-T
°C
Wind Press
QNH
hPa
Press
MSL
hPa
Rain since
9am
mm
Dir  Spd
km/h
Gust
km/h
Spd
kts
Gust
kts
19/11:30pm 18.5 19.5 16.8 90 1.0 SSW 7 9 4 5 1023.1 1023.1 0.4
19/11:00pm 19.2 20.7 16.6 85 1.6 SSE 4 7 2 4 1023.6 1023.6 0.4
19/10:30pm 19.1 21.2 16.3 84 1.7 CALM 0 6 0 3 1024.1 1024.1 0.4
19/10:00pm 20.1 21.1 16.3 79 2.3 E 6 7 3 4 1024.3 1024.3 0.4
19/09:30pm 20.7 21.5 16.3 76 2.6 ESE 7 9 4 5 1024.3 1024.3 0.4
19/09:00pm 20.8 21.0 15.8 73 3.0 ESE 9 13 5 7 1024.2 1024.2 0.4
19/08:30pm 20.8 21.4 15.8 73 3.0 E 7 11 4 6 1024.2 1024.2 0.4
19/08:00pm 21.0 21.7 16.0 73 3.0 E 7 13 4 7 1024.1 1024.1 0.4
19/07:30pm 20.9 21.5 15.9 73 3.0 E 7 11 4 6 1024.1 1024.1 0.4
19/07:00pm 21.1 21.8 16.1 73 3.0 E 7 9 4 5 1023.8 1023.8 0.4
19/06:30pm 21.3 21.8 15.6 70 3.4 ESE 7 15 4 8 1023.6 1023.6 0.4
19/06:00pm 21.9 21.4 15.0 65 4.1 ESE 11 17 6 9 1023.3 1023.3 0.4
19/05:30pm 22.2 21.5 15.5 66 4.0 E 13 20 7 11 1023.0 1023.0 0.4
19/05:00pm 22.3 21.7 15.6 66 4.0 E 13 20 7 11 1022.8 1022.8 0.4
19/04:30pm 22.3 22.2 16.1 68 3.7 E 11 19 6 10 1022.6 1022.6 0.4
19/04:00pm 21.3 21.4 16.5 74 2.9 ENE 11 17 6 9 1022.5 1022.5 0.4
19/03:30pm 21.3 20.3 16.7 75 2.8 E 17 24 9 13 1022.7 1022.7 0.4
19/03:00pm 23.3 22.0 15.9 63 4.5 ENE 17 22 9 12 1022.5 1022.5 0.0
19/02:30pm 23.4 22.2 16.0 63 4.5 ESE 17 26 9 14 1022.6 1022.6 0.0
19/02:00pm 23.9 23.4 15.9 61 4.8 ENE 13 26 7 14 1023.0 1023.0 0.0
19/01:30pm 23.6 22.0 15.1 59 5.1 ESE 17 24 9 13 1023.3 1023.3 0.0
19/01:00pm 23.8 22.0 14.5 56 5.5 ESE 17 26 9 14 1023.6 1023.6 0.0
19/12:30pm 24.0 21.8 14.4 55 5.7 E 19 26 10 14 1024.1 1024.1 0.0
19/12:00pm 24.0 22.1 15.2 58 5.3 E 19 28 10 15 1024.2 1024.2 0.0
19/11:30am 23.8 22.7 16.3 63 4.6 E 17 30 9 16 1024.2 1024.2 0.0
19/11:00am 23.4 22.0 15.5 61 4.7 E 17 26 9 14 1024.2 1024.2 0.0
19/10:30am 23.2 22.8 16.3 65 4.2 ESE 13 26 7 14 1024.5 1024.5 0.0
19/10:00am 21.8 23.4 19.2 85 1.6 SE 9 13 5 7 1024.8 1024.8 0.0
19/09:30am 21.7 20.3 16.6 73 3.1 ESE 19 30 10 16 1025.1 1025.1 0.0
19/09:00am 23.2 21.7 15.3 61 4.7 E 17 28 9 15 1025.1 1025.1 9.2
19/08:30am 23.6 21.4 14.9 58 5.2 E 20 28 11 15 1025.1 1025.1 9.2
19/08:00am 22.8 21.6 15.1 62 4.6 E 15 22 8 12 1025.1 1025.1 9.2
19/07:30am 22.2 21.8 16.2 69 3.6 E 13 20 7 11 1024.9 1024.9 9.2

Latest Capital City Observations: Canberra | Sydney | Melbourne | Brisbane | Adelaide | Perth | Hobart | Darwin

Other Formats:

Comma delimited format used in spreadsheet applications
http://www.bom.gov.au/fwo/IDQ60901/IDQ60901.94570.axf

JavaScript Object Notation format (JSON) in row-major order
http://www.bom.gov.au/fwo/IDQ60901/IDQ60901.94570.json